Cotes De Bretagne — FW3973 — position and weather

sailwx.info

Track history (hours):
 
Tides and Currents Weather Stations Pressure Air Temp Water Temp Dewpoint Dewpoint Depression Visibility Wind Speed Wind Dir Waves Ship Positions

Cotes De Bretagne

Last reported at 2017-Mar-24 13:33 UTC. Time now 2017-Mar-24 13:51 UTC.
Position N 47°20' W 003°02'.

Length 75 m; draft 4.2 m.

Type: Dredging. MMSI: 227003850.

Date/timePositionNaut miles runAvg speedWind from/ knotsBaromVisibWave heightAir tempDewpointWater temp
2017-Mar-24 13:33N 47°20' W 003°02'1110.7
2017-Mar-24 12:33N 47°26' W 003°16'1110.5
2017-Mar-24 11:33N 47°29' W 003°31'1010.3
2017-Mar-24 10:33N 47°32' W 003°45'10 9.9
2017-Mar-24 09:33N 47°36' W 003°59'39 9.7
2017-Mar-24 05:33N 48°00' W 004°44'1010.4
2017-Mar-24 04:34N 48°11' W 004°45'1111.4
2017-Mar-24 03:33N 48°22' W 004°49'1110.6
2017-Mar-24 02:33N 48°33' W 004°50'9 9.0
2017-Mar-24 01:33N 48°39' W 004°41'9 9.3
2017-Mar-24 00:33N 48°43' W 004°28'  
2017-Mar-20 08:33N 48°43' W 002°21'1310.5
2017-Mar-20 07:16N 48°47' W 002°40'6 8.0
2017-Mar-20 06:29N 48°49' W 002°50'12 4.1
2017-Mar-20 03:27N 48°56' W 003°05'4 0.4
2017-Mar-19 15:05N 48°56' W 002°58'8 8.3
2017-Mar-19 14:06N 48°50' W 002°49'1 0.8
2017-Mar-19 12:33N 48°49' W 002°50'8 7.2
2017-Mar-19 11:30N 48°55' W 002°56'1010.0
2017-Mar-19 10:33N 48°55' W 003°11'5811.7
2017-Mar-19 05:33N 48°40' W 004°36'1111.2
2017-Mar-19 04:33N 48°34' W 004°50'1010.3
2017-Mar-19 03:33N 48°24' W 004°49'1111.1
2017-Mar-19 02:34N 48°13' W 004°45'1010.3
2017-Mar-19 01:34N 48°03' W 004°46'1010.3
2017-Mar-19 00:33N 47°55' W 004°36'19 9.3
2017-Mar-18 22:32N 47°43' W 004°15'10 9.4
2017-Mar-18 21:29N 47°38' W 004°02'9 9.2
2017-Mar-18 20:33N 47°38' W 003°49'10 9.9
2017-Mar-18 19:34N 47°40' W 003°35'9 8.8
2017-Mar-18 18:34N 47°42' W 003°22'3 3.5
2017-Mar-18 17:34N 47°45' W 003°19'0 0.0
2017-Mar-18 16:34N 47°45' W 003°19'6 5.6
2017-Mar-18 15:34N 47°40' W 003°24'6 6.4
2017-Mar-18 14:34N 47°35' W 003°19'8 8.2
2017-Mar-18 13:34N 47°29' W 003°11'8 8.5
2017-Mar-18 12:34N 47°22' W 003°04'8 8.5
2017-Mar-18 11:34N 47°16' W 002°56'9 8.7
2017-Mar-18 10:33N 47°09' W 002°47'8 8.4
2017-Mar-18 09:33N 47°03' W 002°39'9 7.9
2017-Mar-18 08:27N 46°56' W 002°31'32 8.0
2017-Mar-18 04:24N 46°31' W 002°01'32 5.3
2017-Mar-17 22:23N 46°05' W 001°35'8 9.5
2017-Mar-17 21:33N 46°05' W 001°24'1010.4
2017-Mar-17 20:33N 46°00' W 001°11'6 1.1
2017-Mar-17 15:17N 45°57' W 001°03'5 6.7
2017-Mar-17 14:32N 45°60' W 001°09'6 6.1
2017-Mar-17 13:33N 46°04' W 001°15'2 1.6
2017-Mar-17 12:33N 46°03' W 001°13'0 0.0
2017-Mar-17 11:33N 46°03' W 001°13'0 0.0
2017-Mar-17 10:33N 46°03' W 001°13'0 0.0
2017-Mar-17 09:33N 46°03' W 001°13'0 0.0
2017-Mar-17 08:33N 46°03' W 001°13'0 0.0
2017-Mar-17 07:33N 46°03' W 001°13'0 0.0
2017-Mar-17 06:33N 46°03' W 001°13'4 4.1
2017-Mar-17 05:33N 46°04' W 001°19'8 8.0
2017-Mar-17 04:33N 46°06' W 001°30'4 3.7
2017-Mar-17 03:33N 46°05' W 001°36'0 0.3
2017-Mar-17 02:33N 46°05' W 001°35'1 0.8
2017-Mar-17 01:28N 46°06' W 001°36'8 9.2
2017-Mar-17 00:33N 46°13' W 001°43'10 9.8
2017-Mar-16 23:33N 46°21' W 001°51'10 9.8
2017-Mar-16 22:33N 46°29' W 001°59'1010.0
2017-Mar-16 21:33N 46°37' W 002°07'1010.1
2017-Mar-16 20:33N 46°45' W 002°15'1010.1
2017-Mar-16 19:32N 46°53' W 002°26'1010.3
2017-Mar-16 18:33N 46°60' W 002°36'1010.3
2017-Mar-16 17:33N 47°08' W 002°46'1010.0
2017-Mar-16 16:33N 47°15' W 002°56'10 9.8
2017-Mar-16 15:33N 47°23' W 003°05'1010.0
2017-Mar-16 14:33N 47°31' W 003°14'9 9.2
2017-Mar-16 13:33N 47°39' W 003°21'6 5.8
2017-Mar-16 12:33N 47°44' W 003°21'0 0.0
2017-Mar-16 11:33N 47°44' W 003°21'0 0.0
2017-Mar-16 10:33N 47°44' W 003°21'1 1.4
2017-Mar-16 09:33N 47°45' W 003°19'0 0.0
2017-Mar-16 08:33N 47°45' W 003°19'0 0.0
2017-Mar-16 07:33N 47°45' W 003°19'0 0.0
2017-Mar-16 06:33N 47°45' W 003°19'0 0.0
2017-Mar-16 05:33N 47°45' W 003°19'0 0.0
2017-Mar-16 04:33N 47°45' W 003°19'3 2.7
2017-Mar-16 03:33N 47°43' W 003°22'5 4.5
2017-Mar-16 02:34N 47°38' W 003°21'5 5.4
2017-Mar-16 01:34N 47°34' W 003°17'6 6.0
2017-Mar-16 00:33N 47°29' W 003°12'6 6.3
2017-Mar-15 23:33N 47°24' W 003°06'7 6.5
2017-Mar-15 22:33N 47°19' W 003°00'7 6.5
2017-Mar-15 21:33N 47°14' W 002°54'9 9.0
2017-Mar-15 20:34N 47°07' W 002°45'10 8.7
2017-Mar-15 19:25N 46°60' W 002°36'7 8.2
2017-Mar-15 18:32N 46°54' W 002°29'9 8.3
2017-Mar-15 17:29N 46°48' W 002°19'8 8.4
2017-Mar-15 16:29N 46°42' W 002°11'7 7.7
2017-Mar-15 15:31N 46°36' W 002°06'9 8.9
2017-Mar-15 14:34N 46°29' W 001°59'9 9.1
2017-Mar-15 13:33N 46°21' W 001°51'10 9.2
2017-Mar-15 12:28N 46°13' W 001°44'6 1.5
2017-Mar-15 08:30N 46°08' W 001°38'1010.7
2017-Mar-15 07:33N 46°16' W 001°46'1110.8
2017-Mar-15 06:33N 46°25' W 001°55'1111.0
2017-Mar-15 05:33N 46°34' W 002°04'1211.1
2017-Mar-15 04:26N 46°45' W 002°14'2410.7
2017-Mar-15 02:12N 47°02' W 002°38'7 9.9
2017-Mar-15 01:32N 47°07' W 002°44'1010.3
2017-Mar-15 00:33N 47°15' W 002°54'1010.1
2017-Mar-14 23:33N 47°22' W 003°05'10 9.9
2017-Mar-14 22:32N 47°27' W 003°17'1010.2
2017-Mar-14 21:33N 47°33' W 003°29'1010.4
2017-Mar-14 20:34N 47°39' W 003°42'1310.6
2017-Mar-14 19:20N 47°47' W 003°58'810.3
2017-Mar-14 18:33N 47°52' W 004°07'  
Track history (hours):
 
Tides and Currents Weather Stations Pressure Air Temp Water Temp Dewpoint Dewpoint Depression Visibility Wind Speed Wind Dir Waves Ship Positions

Cotes De Bretagne

Last reported at 2017-Mar-24 13:33 UTC. Time now 2017-Mar-24 13:51 UTC.
Position N 47°20' W 003°02'.

Length 75 m; draft 4.2 m.

Type: Dredging. MMSI: 227003850.

Date/timePositionNaut miles runAvg speedWind from/ knotsBaromVisibWave heightAir tempDewpointWater temp
2017-Mar-24 13:33N 47°20' W 003°02'1110.7
2017-Mar-24 12:33N 47°26' W 003°16'1110.5
2017-Mar-24 11:33N 47°29' W 003°31'1010.3
2017-Mar-24 10:33N 47°32' W 003°45'10 9.9
2017-Mar-24 09:33N 47°36' W 003°59'39 9.7
2017-Mar-24 05:33N 48°00' W 004°44'1010.4
2017-Mar-24 04:34N 48°11' W 004°45'1111.4
2017-Mar-24 03:33N 48°22' W 004°49'1110.6
2017-Mar-24 02:33N 48°33' W 004°50'9 9.0
2017-Mar-24 01:33N 48°39' W 004°41'9 9.3
2017-Mar-24 00:33N 48°43' W 004°28'  
2017-Mar-20 08:33N 48°43' W 002°21'1310.5
2017-Mar-20 07:16N 48°47' W 002°40'6 8.0
2017-Mar-20 06:29N 48°49' W 002°50'12 4.1
2017-Mar-20 03:27N 48°56' W 003°05'4 0.4
2017-Mar-19 15:05N 48°56' W 002°58'8 8.3
2017-Mar-19 14:06N 48°50' W 002°49'1 0.8
2017-Mar-19 12:33N 48°49' W 002°50'8 7.2
2017-Mar-19 11:30N 48°55' W 002°56'1010.0
2017-Mar-19 10:33N 48°55' W 003°11'5811.7
2017-Mar-19 05:33N 48°40' W 004°36'1111.2
2017-Mar-19 04:33N 48°34' W 004°50'1010.3
2017-Mar-19 03:33N 48°24' W 004°49'1111.1
2017-Mar-19 02:34N 48°13' W 004°45'1010.3
2017-Mar-19 01:34N 48°03' W 004°46'1010.3
2017-Mar-19 00:33N 47°55' W 004°36'19 9.3
2017-Mar-18 22:32N 47°43' W 004°15'10 9.4
2017-Mar-18 21:29N 47°38' W 004°02'9 9.2
2017-Mar-18 20:33N 47°38' W 003°49'10 9.9
2017-Mar-18 19:34N 47°40' W 003°35'9 8.8
2017-Mar-18 18:34N 47°42' W 003°22'3 3.5
2017-Mar-18 17:34N 47°45' W 003°19'0 0.0
2017-Mar-18 16:34N 47°45' W 003°19'6 5.6
2017-Mar-18 15:34N 47°40' W 003°24'6 6.4
2017-Mar-18 14:34N 47°35' W 003°19'8 8.2
2017-Mar-18 13:34N 47°29' W 003°11'8 8.5
2017-Mar-18 12:34N 47°22' W 003°04'8 8.5
2017-Mar-18 11:34N 47°16' W 002°56'9 8.7
2017-Mar-18 10:33N 47°09' W 002°47'8 8.4
2017-Mar-18 09:33N 47°03' W 002°39'9 7.9
2017-Mar-18 08:27N 46°56' W 002°31'32 8.0
2017-Mar-18 04:24N 46°31' W 002°01'32 5.3
2017-Mar-17 22:23N 46°05' W 001°35'8 9.5
2017-Mar-17 21:33N 46°05' W 001°24'1010.4
2017-Mar-17 20:33N 46°00' W 001°11'6 1.1
2017-Mar-17 15:17N 45°57' W 001°03'5 6.7
2017-Mar-17 14:32N 45°60' W 001°09'6 6.1
2017-Mar-17 13:33N 46°04' W 001°15'2 1.6
2017-Mar-17 12:33N 46°03' W 001°13'0 0.0
2017-Mar-17 11:33N 46°03' W 001°13'0 0.0
2017-Mar-17 10:33N 46°03' W 001°13'0 0.0
2017-Mar-17 09:33N 46°03' W 001°13'0 0.0
2017-Mar-17 08:33N 46°03' W 001°13'0 0.0
2017-Mar-17 07:33N 46°03' W 001°13'0 0.0
2017-Mar-17 06:33N 46°03' W 001°13'4 4.1
2017-Mar-17 05:33N 46°04' W 001°19'8 8.0
2017-Mar-17 04:33N 46°06' W 001°30'4 3.7
2017-Mar-17 03:33N 46°05' W 001°36'0 0.3
2017-Mar-17 02:33N 46°05' W 001°35'1 0.8
2017-Mar-17 01:28N 46°06' W 001°36'8 9.2
2017-Mar-17 00:33N 46°13' W 001°43'10 9.8
2017-Mar-16 23:33N 46°21' W 001°51'10 9.8
2017-Mar-16 22:33N 46°29' W 001°59'1010.0
2017-Mar-16 21:33N 46°37' W 002°07'1010.1
2017-Mar-16 20:33N 46°45' W 002°15'1010.1
2017-Mar-16 19:32N 46°53' W 002°26'1010.3
2017-Mar-16 18:33N 46°60' W 002°36'1010.3
2017-Mar-16 17:33N 47°08' W 002°46'1010.0
2017-Mar-16 16:33N 47°15' W 002°56'10 9.8
2017-Mar-16 15:33N 47°23' W 003°05'1010.0
2017-Mar-16 14:33N 47°31' W 003°14'9 9.2
2017-Mar-16 13:33N 47°39' W 003°21'6 5.8
2017-Mar-16 12:33N 47°44' W 003°21'0 0.0
2017-Mar-16 11:33N 47°44' W 003°21'0 0.0
2017-Mar-16 10:33N 47°44' W 003°21'1 1.4
2017-Mar-16 09:33N 47°45' W 003°19'0 0.0
2017-Mar-16 08:33N 47°45' W 003°19'0 0.0
2017-Mar-16 07:33N 47°45' W 003°19'0 0.0
2017-Mar-16 06:33N 47°45' W 003°19'0 0.0
2017-Mar-16 05:33N 47°45' W 003°19'0 0.0
2017-Mar-16 04:33N 47°45' W 003°19'3 2.7
2017-Mar-16 03:33N 47°43' W 003°22'5 4.5
2017-Mar-16 02:34N 47°38' W 003°21'5 5.4
2017-Mar-16 01:34N 47°34' W 003°17'6 6.0
2017-Mar-16 00:33N 47°29' W 003°12'6 6.3
2017-Mar-15 23:33N 47°24' W 003°06'7 6.5
2017-Mar-15 22:33N 47°19' W 003°00'7 6.5
2017-Mar-15 21:33N 47°14' W 002°54'9 9.0
2017-Mar-15 20:34N 47°07' W 002°45'10 8.7
2017-Mar-15 19:25N 46°60' W 002°36'7 8.2
2017-Mar-15 18:32N 46°54' W 002°29'9 8.3
2017-Mar-15 17:29N 46°48' W 002°19'8 8.4
2017-Mar-15 16:29N 46°42' W 002°11'7 7.7
2017-Mar-15 15:31N 46°36' W 002°06'9 8.9
2017-Mar-15 14:34N 46°29' W 001°59'9 9.1
2017-Mar-15 13:33N 46°21' W 001°51'10 9.2
2017-Mar-15 12:28N 46°13' W 001°44'6 1.5
2017-Mar-15 08:30N 46°08' W 001°38'1010.7
2017-Mar-15 07:33N 46°16' W 001°46'1110.8
2017-Mar-15 06:33N 46°25' W 001°55'1111.0
2017-Mar-15 05:33N 46°34' W 002°04'1211.1
2017-Mar-15 04:26N 46°45' W 002°14'2410.7
2017-Mar-15 02:12N 47°02' W 002°38'7 9.9
2017-Mar-15 01:32N 47°07' W 002°44'1010.3
2017-Mar-15 00:33N 47°15' W 002°54'1010.1
2017-Mar-14 23:33N 47°22' W 003°05'10 9.9
2017-Mar-14 22:32N 47°27' W 003°17'1010.2
2017-Mar-14 21:33N 47°33' W 003°29'1010.4
2017-Mar-14 20:34N 47°39' W 003°42'1310.6
2017-Mar-14 19:20N 47°47' W 003°58'810.3
2017-Mar-14 18:33N 47°52' W 004°07'  

Dump ship's entire track history